Data for 10/09/2008

Time Sea-Level Adjusted Pressure Absolute Pressure Temperature Relative Humidity Dew Point   
(mb) (inHg) (mb) (inHg) (C) (F) (%) (C) (F)
00:05 1021 30.15 850 25.1 -1.2 29.8 51 -10.2 13.7
00:10 1021 30.15 850 25.1 -0.8 30.5 49 -10.4 13.4
00:15 1021 30.15 850 25.1 -0.6 30.9 48 -10.4 13.4
00:20 1021 30.15 850 25.1 -0.5 31 47 -10.4 13.2
00:25 1020 30.12 850 25.1 -0.4 31.3 47 -10.4 13.3
00:30 1020 30.12 850 25.1 -0.5 31.1 48 -10.2 13.6
00:35 1020 30.12 850 25.1 -0.8 30.6 49 -10.2 13.7
00:40 1020 30.12 850 25.1 -0.9 30.3 49 -10.4 13.3
00:45 1020 30.12 849 25.07 -0.9 30.5 49 -10.4 13.3
00:50 1020 30.12 849 25.07 -0.9 30.4 49 -10.4 13.2
00:55 1020 30.12 849 25.07 -0.8 30.5 49 -10.4 13.3
01:00 1020 30.12 849 25.07 -0.7 30.7 48 -10.5 13.2
01:05 1020 30.12 849 25.07 -0.7 30.7 48 -10.3 13.5
01:10 1020 30.12 849 25.07 -0.8 30.6 47 -10.6 12.9
01:15 1020 30.12 849 25.07 -0.7 30.7 48 -10.3 13.5
01:20 1020 30.12 849 25.07 -1 30.3 48 -10.5 13.1
01:25 1020 30.12 849 25.07 -0.9 30.3 48 -10.6 12.8
01:30 1020 30.12 849 25.07 -0.9 30.4 47 -10.8 12.5
01:35 1020 30.12 849 25.07 -1 30.3 50 -10.1 13.9
01:40 1020 30.12 849 25.07 -1.3 29.7 50 -10.3 13.4
01:45 1020 30.12 849 25.07 -0.9 30.3 50 -10.1 13.8
01:50 1020 30.12 849 25.07 -0.9 30.5 52 -9.6 14.7
01:55 1020 30.12 849 25.07 -1.2 29.8 53 -9.5 14.8
02:00 1019 30.09 849 25.07 -1.1 30 50 -10.2 13.7
02:05 1019 30.09 849 25.07 -1 30.2 51 -10 14
02:10 1019 30.09 849 25.07 -1 30.3 50 -10 13.9
02:15 1019 30.09 848 25.04 -0.7 30.7 49 -10.1 13.9
02:20 1019 30.09 848 25.04 -0.7 30.7 50 -9.8 14.3
02:25 1019 30.09 849 25.07 -1.1 30.1 52 -9.8 14.3
02:30 1019 30.09 849 25.07 -1.6 29.1 55 -9.5 14.8
02:35 1019 30.09 849 25.07 -1.7 28.9 52 -10.3 13.5
02:40 1019 30.09 848 25.04 -1.3 29.7 51 -10 13.9
02:45 1019 30.09 848 25.04 -1.3 29.6 52 -9.9 14.2
02:50 1019 30.09 848 25.04 -1.1 30 51 -10 13.9
02:55 1019 30.09 848 25.04 -1.1 30 52 -9.7 14.5
03:00 1019 30.09 848 25.04 -1.8 28.8 55 -9.8 14.4
03:05 1019 30.09 848 25.04 -1.3 29.6 51 -10.2 13.7
03:10 1019 30.09 848 25.04 -1.3 29.7 52 -9.9 14.2
03:15 1019 30.09 848 25.04 -1 30.2 47 -10.8 12.5
03:20 1019 30.09 848 25.04 -0.8 30.5 49 -10.2 13.6
03:25 1019 30.09 848 25.04 -1.3 29.7 53 -9.7 14.5
03:30 1019 30.09 848 25.04 -1.7 28.9 52 -10.3 13.4
03:35 1019 30.09 848 25.04 -1.4 29.6 50 -10.5 13.1
03:40 1019 30.09 848 25.04 -0.7 30.8 46 -10.9 12.4
03:45 1019 30.09 848 25.04 -0.4 31.2 45 -10.9 12.3
03:50 1018 30.06 848 25.04 -0.3 31.5 46 -10.5 13.2
03:55 1018 30.06 848 25.04 -0.8 30.6 50 -9.8 14.3
04:00 1018 30.06 847 25.01 -1.5 29.4 53 -9.8 14.3
04:05 1018 30.06 847 25.01 -1.8 28.7 54 -9.9 14.1
04:10 1018 30.06 847 25.01 -2.4 27.7 56 -10 13.9
04:15 1018 30.06 847 25.01 -2.4 27.7 54 -10.4 13.3
04:20 1018 30.06 847 25.01 -2.4 27.7 56 -10 14.1
04:25 1018 30.06 847 25.01 -2.4 27.7 56 -9.9 14.1
04:30 1018 30.06 847 25.01 -2.7 27.1 58 -9.8 14.4
04:35 1018 30.06 847 25.01 -2.9 26.8 61 -9.5 15
04:40 1018 30.06 847 25.01 -3.2 26.2 59 -10.1 13.7
04:45 1018 30.06 847 25.01 -2.7 27.2 58 -9.9 14.1
04:50 1018 30.06 847 25.01 -2.2 28.1 55 -10.1 13.9
04:55 1018 30.06 847 25.01 -2 28.4 52 -10.6 13
05:00 1018 30.06 847 25.01 -1.3 29.6 50 -10.4 13.2
05:05 1018 30.06 847 25.01 -1.4 29.4 52 -10.2 13.7
05:10 1018 30.06 847 25.01 -1.9 28.6 53 -10.2 13.7
05:15 1018 30.06 847 25.01 -2.3 27.9 55 -10 13.9
05:20 1018 30.06 847 25.01 -2.6 27.4 55 -10.3 13.4
05:25 1017 30.03 847 25.01 -2.3 27.9 53 -10.5 13
05:30 1017 30.03 847 25.01 -1.6 29.2 50 -10.7 12.8
05:35 1017 30.03 847 25.01 -1.1 29.9 49 -10.6 13
05:40 1017 30.03 846 24.98 -0.8 30.6 48 -10.5 13.1
05:45 1017 30.03 846 24.98 -0.5 31.1 46 -10.7 12.8
05:50 1017 30.03 846 24.98 -0.4 31.3 46 -10.7 12.7
05:55 1017 30.03 846 24.98 -0.2 31.6 46 -10.6 12.9
06:00 1017 30.03 846 24.98 -0.3 31.5 46 -10.6 12.9
06:05 1017 30.03 846 24.98 -0.4 31.2 46 -10.6 13
06:10 1017 30.03 846 24.98 -0.6 31 46 -10.7 12.7
06:15 1017 30.03 846 24.98 -0.4 31.2 46 -10.7 12.8
06:20 1017 30.03 846 24.98 -0.5 31.1 47 -10.5 13
06:25 1017 30.03 846 24.98 -1.1 30.1 51 -9.9 14.2
06:30 1017 30.03 846 24.98 -1.9 28.5 54 -10.1 13.9
06:35 1017 30.03 846 24.98 -2.3 27.8 55 -10.2 13.7
06:40 1017 30.03 846 24.98 -2.3 27.8 55 -10.1 13.8
06:45 1017 30.03 846 24.98 -2.5 27.5 56 -10.1 13.8
06:50 1017 30.03 846 24.98 -2.3 27.9 55 -10.2 13.6
06:55 1017 30.03 846 24.98 -2.2 28 55 -10 13.9
07:00 1016 30 846 24.98 -2.3 27.8 55 -10.2 13.6
07:05 1016 30 846 24.98 -2.3 27.9 55 -10.1 13.8
07:10 1016 30 845 24.95 -2.2 28 53 -10.5 13.1
07:15 1016 30 845 24.95 -1.2 29.8 48 -10.9 12.4
07:20 1016 30 845 24.95 -0.6 30.9 47 -10.6 13
07:25 1016 30 845 24.95 -0.5 31.1 47 -10.5 13.1
07:30 1016 30 845 24.95 -0.4 31.2 47 -10.5 13.1
07:35 1016 30 845 24.95 -0.4 31.2 47 -10.5 13.1
07:40 1016 30 845 24.95 -0.4 31.3 47 -10.4 13.3
07:45 1016 30 845 24.95 -0.4 31.4 47 -10.4 13.2
07:50 1016 30 845 24.95 -0.4 31.3 47 -10.5 13.2
07:55 1016 30 845 24.95 -0.3 31.5 46 -10.5 13.1
08:00 1016 30 845 24.95 -0.3 31.5 47 -10.3 13.4
08:05 1016 30 845 24.95 -0.2 31.6 46 -10.4 13.3
08:10 1016 30 845 24.95 -0.5 31.1 50 -9.6 14.7
08:15 1016 30 845 24.95 -1.7 29 55 -9.6 14.8
08:20 1016 30 845 24.95 -2 28.4 55 -9.8 14.3
08:25 1016 30 845 24.95 -1.9 28.6 55 -9.7 14.5
08:30 1016 30 845 24.95 -1.7 29 52 -10.4 13.3
08:35 1016 30 845 24.95 -1.3 29.7 52 -10 14.1
08:40 1016 30 845 24.95 -1.2 29.8 52 -9.8 14.4
08:45 1016 30 845 24.95 -1.1 30 51 -10.1 13.8
08:50 1016 30 845 24.95 -0.7 30.7 50 -10 13.9
08:55 1016 30 845 24.95 -0.1 31.8 46 -10.4 13.3
09:00 1016 30 845 24.95 0.6 33 44 -10.4 13.2
09:05 1015 29.97 845 24.95 1 33.8 43 -10.3 13.4
09:10 1015 29.97 845 24.95 1.1 34 42 -10.5 13.2
09:15 1015 29.97 845 24.95 1.2 34.2 41 -10.5 13.1
09:20 1015 29.97 844 24.92 1.5 34.7 40 -10.7 12.8
09:25 1015 29.97 844 24.92 1.9 35.4 39 -10.6 12.9
09:30 1015 29.97 844 24.92 2 35.5 39 -10.5 13.1
09:35 1015 29.97 844 24.92 2.2 35.9 38 -10.8 12.6
09:40 1015 29.97 844 24.92 2.2 35.9 38 -10.8 12.6
09:45 1015 29.97 844 24.92 2.4 36.4 37 -10.7 12.8
09:50 1015 29.97 844 24.92 2.6 36.7 37 -10.8 12.5
09:55 1015 29.97 844 24.92 2.9 37.2 35 -11 12.2
10:00 1015 29.97 844 24.92 2.9 37.3 35 -10.9 12.3
10:05 1015 29.97 844 24.92 3.1 37.6 35 -11 12.3
10:10 1015 29.97 844 24.92 3.2 37.7 35 -11 12.1
10:15 1015 29.97 844 24.92 3.3 37.9 34 -11.2 11.8
10:20 1015 29.97 844 24.92 3.4 38 34 -11.2 11.8
10:25 1015 29.97 844 24.92 3.5 38.2 33 -11.3 11.6
10:30 1015 29.97 844 24.92 3.6 38.5 34 -10.8 12.6
10:35 1015 29.97 844 24.92 3.6 38.5 33 -11.3 11.7
10:40 1014 29.94 844 24.92 3.7 38.7 38 -9.3 15.2
10:45 1014 29.94 844 24.92 3.1 37.6 33 -11.6 11.2
10:50 1014 29.94 844 24.92 4 39.2 32 -11.2 11.8
10:55 1014 29.94 844 24.92 4.2 39.5 32 -11.1 12.1
11:00 1014 29.94 843 24.89 4.1 39.4 32 -11.3 11.7
11:05 1014 29.94 843 24.89 4.3 39.7 32 -11.1 12
11:10 1014 29.94 843 24.89 4.4 39.9 32 -11 12.1
11:15 1014 29.94 843 24.89 4.9 40.8 30 -11.1 11.9
11:20 1014 29.94 843 24.89 4.8 40.6 31 -11.1 12
11:25 1014 29.94 843 24.89 4.7 40.4 31 -11 12.1
11:30 1014 29.94 843 24.89 5.1 41.2 33 -10 14
11:35 1014 29.94 843 24.89 4.9 40.8 34 -9.7 14.6
11:40 1014 29.94 843 24.89 4.5 40 34 -10.1 13.8
11:45 1014 29.94 843 24.89 4.8 40.7 33 -10 14
11:50 1014 29.94 843 24.89 4.8 40.7 34 -9.8 14.3
11:55 1014 29.94 843 24.89 4.8 40.6 34 -9.8 14.4
12:00 1014 29.94 843 24.89 4.2 39.5 35 -10.1 13.8
12:05 1014 29.94 843 24.89 4.7 40.5 30 -11.7 11
12:10 1013 29.91 843 24.89 6.2 43.2 27 -11.5 11.2
12:15 1013 29.91 843 24.89 6.3 43.4 27 -11.5 11.3
12:20 1013 29.91 842 24.86 6.3 43.4 27 -11.4 11.5
12:25 1013 29.91 842 24.86 6 42.8 28 -11.3 11.6
12:30 1013 29.91 842 24.86 6.4 43.6 27 -11.4 11.5
12:35 1013 29.91 842 24.86 6.4 43.5 27 -11.1 12.1
12:40 1013 29.91 842 24.86 6.1 42.9 28 -11.3 11.7
12:45 1013 29.91 842 24.86 6.2 43.1 28 -11 12.1
12:50 1013 29.91 842 24.86 6.3 43.3 28 -11 12.2
12:55 1013 29.91 842 24.86 6.1 43 29 -10.8 12.5
13:00 1013 29.91 842 24.86 6 42.8 29 -10.9 12.3
13:05 1013 29.91 842 24.86 6 42.9 29 -10.7 12.8
13:10 1013 29.91 842 24.86 6.1 43 28 -11.2 11.9
13:15 1013 29.91 842 24.86 6.1 43 28 -10.9 12.3
13:20 1013 29.91 842 24.86 6.2 43.2 28 -10.8 12.6
13:25 1013 29.91 842 24.86 6.4 43.4 28 -10.8 12.6
13:30 1012 29.88 842 24.86 6.2 43.2 29 -10.7 12.7
13:35 1012 29.88 842 24.86 6.7 44 28 -10.7 12.8
13:40 1012 29.88 841 24.83 6.3 43.3 28 -10.7 12.7
13:45 1012 29.88 841 24.83 6.2 43.2 29 -10.5 13.1
13:50 1012 29.88 842 24.86 6.1 43 29 -10.5 13.1
13:55 1012 29.88 841 24.83 6.3 43.3 30 -10.2 13.6
14:00 1012 29.88 841 24.83 6.3 43.3 30 -10.1 13.7
14:05 1012 29.88 841 24.83 6.3 43.3 30 -10 13.9
14:10 1012 29.88 841 24.83 6.2 43.2 30 -10.1 13.9
14:15 1012 29.88 841 24.83 6.5 43.8 30 -9.9 14.1
14:20 1012 29.88 841 24.83 6.8 44.2 30 -9.6 14.6
14:25 1012 29.88 841 24.83 6.5 43.8 30 -10 14.1
14:30 1012 29.88 841 24.83 6.7 44.1 30 -9.8 14.4
14:35 1012 29.88 841 24.83 6.8 44.2 30 -9.5 14.9
14:40 1012 29.88 841 24.83 6.9 44.5 30 -9.4 15
14:45 1012 29.88 841 24.83 6.8 44.2 30 -9.6 14.8
14:50 1012 29.88 841 24.83 6.6 43.9 30 -9.8 14.4
14:55 1012 29.88 841 24.83 6.7 44.1 31 -9.4 15
15:00 1012 29.88 841 24.83 6.6 43.8 32 -9.1 15.6
15:05 1012 29.88 841 24.83 6.5 43.8 32 -9 15.8
15:10 1012 29.88 841 24.83 6.4 43.6 32 -9.1 15.7
15:15 1012 29.88 841 24.83 6.4 43.5 32 -9.2 15.4
15:20 1012 29.88 841 24.83 6.3 43.4 31 -9.4 15.1
15:25 1012 29.88 841 24.83 6.6 43.9 32 -9.1 15.6
15:30 1012 29.88 841 24.83 6.1 42.9 32 -9.3 15.3
15:35 1012 29.88 841 24.83 6.2 43.1 32 -9.4 15.2
15:40 1012 29.88 841 24.83 6.3 43.4 33 -9 15.9
15:45 1012 29.88 841 24.83 6.1 43 33 -8.9 15.9
15:50 1012 29.88 841 24.83 5.9 42.7 34 -8.6 16.5
15:55 1012 29.88 841 24.83 5.6 42 35 -8.6 16.6
16:00 1012 29.88 841 24.83 5.6 42 36 -8.3 17
16:05 1012 29.88 841 24.83 5.3 41.6 37 -8.3 17.1
16:10 1012 29.88 841 24.83 5.3 41.6 36 -8.5 16.7
16:15 1012 29.88 841 24.83 5.6 42 36 -8.5 16.6
16:20 1012 29.88 841 24.83 5.4 41.8 35 -8.8 16.2
16:25 1012 29.88 841 24.83 5.4 41.8 36 -8.6 16.5
16:30 1012 29.88 841 24.83 5.6 42.1 35 -8.7 16.3
16:35 1012 29.88 841 24.83 5.9 42.6 34 -8.7 16.4
16:40 1012 29.88 841 24.83 5.7 42.3 36 -8.3 17.1
16:45 1012 29.88 842 24.86 5.2 41.3 36 -8.5 16.6
16:50 1012 29.88 842 24.86 5.2 41.3 36 -8.6 16.4
16:55 1012 29.88 841 24.83 5.2 41.4 35 -8.8 16.1
17:00 1012 29.88 841 24.83 5.5 42 35 -8.7 16.4
17:05 1012 29.88 841 24.83 5.5 41.9 36 -8.5 16.7
17:10 1012 29.88 841 24.83 5.1 41.2 37 -8.5 16.7
17:15 1012 29.88 842 24.86 4.8 40.7 37 -8.6 16.6
17:20 1012 29.88 842 24.86 4.7 40.5 38 -8.4 16.9
17:25 1012 29.88 841 24.83 4.5 40.2 39 -8.4 16.9
17:30 1012 29.88 842 24.86 4.5 40.1 39 -8.2 17.3
17:35 1012 29.88 841 24.83 4.3 39.8 40 -8.1 17.4
17:40 1012 29.88 841 24.83 4.2 39.6 40 -8.2 17.2
17:45 1012 29.88 841 24.83 4.1 39.4 41 -8 17.6
17:50 1012 29.88 842 24.86 3.9 39 42 -7.7 18.1
17:55 1012 29.88 842 24.86 3.7 38.7 44 -7.5 18.6
18:00 1013 29.91 842 24.86 3.6 38.5 45 -7.3 18.8
18:05 1013 29.91 842 24.86 3.5 38.3 45 -7.3 18.9
18:10 1013 29.91 842 24.86 3.4 38.1 46 -7.1 19.1
18:15 1013 29.91 842 24.86 3.4 38.1 46 -7.2 19.1
18:20 1013 29.91 842 24.86 3.4 38.1 46 -7.1 19.2
18:25 1013 29.91 842 24.86 3.4 38 47 -7 19.4
18:30 1013 29.91 842 24.86 3.3 37.9 47 -6.9 19.6
18:35 1013 29.91 842 24.86 3.2 37.8 48 -6.8 19.7
18:40 1013 29.91 842 24.86 3.2 37.7 49 -6.7 20
18:45 1013 29.91 842 24.86 3.1 37.5 50 -6.4 20.5
18:50 1013 29.91 842 24.86 2.9 37.2 52 -6 21.3
18:55 1013 29.91 842 24.86 2.6 36.8 54 -5.7 21.8
19:00 1013 29.91 842 24.86 2.5 36.5 57 -5.3 22.5
19:05 1013 29.91 843 24.89 2.3 36.2 58 -5.2 22.7
19:10 1013 29.91 843 24.89 2.2 36 58 -5.3 22.5
19:15 1013 29.91 843 24.89 2.2 35.9 58 -5.2 22.6
19:20 1013 29.91 843 24.89 2.2 35.9 58 -5.3 22.4
19:25 1013 29.91 843 24.89 2.1 35.8 59 -5.1 22.7
19:30 1013 29.91 843 24.89 2 35.5 61 -4.8 23.3
19:35 1013 29.91 843 24.89 1.8 35.2 62 -4.7 23.5
19:40 1014 29.94 843 24.89 1.7 35 65 -4.3 24.3
19:45 1014 29.94 843 24.89 1.5 34.6 66 -4.2 24.5
19:50 1014 29.94 843 24.89 1.4 34.5 67 -4.2 24.5
19:55 1014 29.94 843 24.89 1.3 34.4 66 -4.3 24.3
20:00 1014 29.94 843 24.89 1.3 34.3 68 -4.1 24.7
20:05 1014 29.94 843 24.89 1.2 34.1 69 -3.9 25
20:10 1014 29.94 843 24.89 1.1 33.9 70 -3.8 25.2
20:15 1014 29.94 843 24.89 1 33.7 73 -3.4 25.9
20:20 1014 29.94 843 24.89 0.7 33.3 75 -3.2 26.3
20:25 1014 29.94 843 24.89 0.5 32.9 79 -2.7 27.1
20:30 1014 29.94 843 24.89 0.3 32.5 81 -2.6 27.3
20:35 1014 29.94 843 24.89 0.1 32.2 83 -2.5 27.5
20:40 1014 29.94 843 24.89 0.1 32.1 82 -2.7 27.2
20:45 1014 29.94 843 24.89 0 32.1 82 -2.6 27.2
20:50 1014 29.94 843 24.89 0 32 83 -2.6 27.3
20:55 1014 29.94 843 24.89 0 32 83 -2.5 27.5
21:00 1014 29.94 843 24.89 0 32 83 -2.6 27.3
21:05 1014 29.94 843 24.89 0 32.1 82 -2.7 27.2
21:10 1014 29.94 843 24.89 0 32 81 -2.8 27
21:15 1014 29.94 843 24.89 -0 32 81 -2.9 26.8
21:20 1014 29.94 843 24.89 -0.1 31.9 82 -2.8 27
21:25 1014 29.94 843 24.89 -0.2 31.7 83 -2.7 27.2
21:30 1014 29.94 843 24.89 -0.3 31.5 86 -2.3 27.8
21:35 1014 29.94 843 24.89 -0.4 31.3 87 -2.3 27.8
21:40 1014 29.94 843 24.89 -0.5 31.2 88 -2.2 28.1
21:45 1014 29.94 843 24.89 -0.6 31 89 -2.1 28.2
21:50 1014 29.94 843 24.89 -0.6 30.8 90 -2.1 28.3
21:55 1014 29.94 843 24.89 -0.7 30.8 89 -2.2 28
22:00 1014 29.94 843 24.89 -0.8 30.6 92 -1.9 28.5
22:05 1014 29.94 843 24.89 -0.8 30.5 90 -2.3 27.8
22:10 1014 29.94 843 24.89 -0.9 30.5 91 -2.2 28.1
22:15 1014 29.94 843 24.89 -0.9 30.4 91 -2.2 28
22:20 1014 29.94 843 24.89 -0.8 30.5 90 -2.3 27.9
22:25 1014 29.94 843 24.89 -0.8 30.6 89 -2.3 27.8
22:30 1014 29.94 843 24.89 -0.8 30.6 87 -2.6 27.3
22:35 1014 29.94 843 24.89 -0.7 30.7 86 -2.7 27.1
22:40 1014 29.94 843 24.89 -0.7 30.8 85 -2.8 26.9
22:45 1014 29.94 843 24.89 -0.7 30.8 85 -2.9 26.8
22:50 1014 29.94 843 24.89 -0.7 30.7 86 -2.8 26.9
22:55 1014 29.94 843 24.89 -0.7 30.7 86 -2.8 26.9
23:00 1014 29.94 843 24.89 -0.6 30.8 84 -3 26.7
23:05 1014 29.94 843 24.89 -0.6 30.9 84 -3 26.5
23:10 1014 29.94 843 24.89 -0.6 31 83 -3.1 26.4
23:15 1014 29.94 843 24.89 -0.6 31 82 -3.2 26.2
23:20 1014 29.94 843 24.89 -0.5 31.1 82 -3.2 26.2
23:25 1014 29.94 843 24.89 -0.4 31.2 80 -3.5 25.7
23:30 1014 29.94 843 24.89 -0.4 31.3 79 -3.6 25.5
23:35 1014 29.94 843 24.89 -0.3 31.4 79 -3.6 25.6
23:40 1014 29.94 843 24.89 -0.3 31.4 79 -3.6 25.6
23:45 1014 29.94 843 24.89 -0.4 31.3 80 -3.4 25.8
23:50 1014 29.94 843 24.89 -0.4 31.2 81 -3.3 26
23:55 1014 29.94 843 24.89 -0.5 31 83 -3.1 26.4
24:00 1014 29.94 843 24.89 -0.7 30.8 85 -2.9 26.8